Lisco, NE (69148)

9:45 AM MDT on May 06, 2015 (GMT -0600)
RAWS | | Change Station
CLOSE
Current Station
Personal Weather Station
Location: Lisco, NE
Elevation: 3899 ft
Nearby Weather Stations

Elev 3899 ft 41.76 °N, 102.44 °W | Updated 47 minutes ago

Overcast
Overcast
52 °F
Feels Like 52 °F
N
6
Wind Variable Wind from SSE
Gusts 15.0 mph

Today
High -- | Low -- °F
--% Chance of Precip.
Yesterday
High -- | Low -- °F
Precip. -- in
5:40 AM 7:53 PM
Waning Gibbous, 93% visible
Pressure 29.68 in
Visibility 9.0 miles
Clouds Overcast 600 ft
Dew Point 51 °F
Humidity 98%
Rainfall in
Snow Depth Not available.
UV 1 out of 12
Pollen 5.00 out of 12
Air Quality Not available.
Flu Activity Local Activity
METAR KAIA 061453Z AUTO 14009KT 9SM OVC006 12/11 A2968

More Conditions Fewer Conditions

Pressure 29.68 in
Visibility 9.0 miles
Clouds Overcast 600 ft
Dew Point 51 °F
Humidity 98%
Rainfall in
Snow Depth Not available.
UV 1 out of 12
Pollen 5.00 out of 12
Air Quality Not available.
Flu Activity Local Activity
METAR KAIA 061453Z AUTO 14009KT 9SM OVC006 12/11 A2968

More Conditions Fewer Conditions

10-Day Weather Forecast

Almanac

Astronomy

May. 06, 2015 Rise Set
Actual Time
Civil Twilight
Nautical Twilight
Astronomical Twilight
Moon
Length of Visible Light
Length of Day
Tomorrow will be .
, % of the Moon is Illuminated

Today's Extremes

State Highs State Lows

Community

WunderPhotos

Upload Photos

1,818,938 photos uploaded!

WunderBlogs® & News

Nearby

Air Quality

  Air Quality AQ Index Pollutant
Not available.

Snow Depth

Station Depth Elevation

Earthquake Activity

City Distance Mag. Time & Date
Minimum magnitude displayed is 2.5.

Coastal Water Temperatures

Place Temperature

Stations

Nearby Weather Stations

Station Location Temp. Windchill Dew Point Humidity Wind Precip. Elev Updated Type